Airfield :
LOGIN :

Register | Disclaimer

   EN    FR    IT 

 










Legend :    VFR   Marginal VFR   IFR   Intensive IFR   Very Intensive IFR
Visi :
Ceiling :
>= 8 km
>= 3000ft
5 to 8 km
1000 to 3000 ft
1500m to 5 km
500 to 1000 ft
800 to 1500m
200 to 500 ft
< 800m
< 200 ft
Symbols :   Thunderstorms  Fog  Heavy snow  Heavy precipitations  Wind > 20 kt
SIGMETs :     Misc.  Thunderstorms  Icing  Turbulence  Mountain Waves  Volcanic Ashes







- Airport Elevation : 32 ft
- IATA code : LKZ


EGUL - RAF Lakenheath

CURRENT METAR :
  • 261226Z AUTO 02010KT 9999 OVC015 16/13 A3039 RMK AO2 SLP294 $

EXPIRED METARs :
  • 261156Z AUTO 01010KT 9999 OVC014 16/13 A3040 RMK AO2 SLP298 T01590130 10162 20144 52010 $
  • 261056Z AUTO 05011KT 9999 OVC013 16/14 A3039 RMK AO2 SLP294 T01600137 $
  • 260956Z AUTO 04011KT 9999 OVC011 16/14 A3037 RMK AO2 SLP287 T01560136 $

TAF AMD TAF EGUL
Valid from the 26 at 12:00 until the 27 at 18:00 UTC


261249Z 2612/2718 02009KT 9999 OVC015 QNH3039INS
TEMPO 2612/2615 BKN020
BECMG 2614/2615 03009KT 9999 BKN020 QNH3039INS
BECMG 2617/2618 03009KT 9999 BKN015 QNH3039INS
BECMG 2700/2701 03009KT 9999 FEW015 QNH3045INS TX18/2614Z TN10/2702Z
No reported NOTAMs for that airfield.



MET'MAP, your aeronautical weather chart ! - Copyright ORBIFLY December 2007 - Disclaimer

ORBIFLY MET'MAP TEAM :

Programming & Development : Alexandra Zaïnal
Concept & Development : Baudouin d'Aumeries
Co-Development & Prog : Marc-Olivier Méhu
Technical & hardware support : Manuel Goepfert

Contact : metmap@orbifly.com




SOURCES & CREDITS :

   NOAA